sensor_id;sensor_type;location;lat;lon;timestamp;P1;durP1;ratioP1;P2;durP2;ratioP2
21639;SDS011;10981;45.462;10.974;2024-02-15T00:00:22;70.50;;;34.58;;
21639;SDS011;10981;45.462;10.974;2024-02-15T00:02:52;64.32;;;32.63;;
21639;SDS011;10981;45.462;10.974;2024-02-15T00:05:21;59.45;;;31.85;;
21639;SDS011;10981;45.462;10.974;2024-02-15T00:07:49;67.78;;;31.77;;
21639;SDS011;10981;45.462;10.974;2024-02-15T00:10:17;62.60;;;34.00;;
21639;SDS011;10981;45.462;10.974;2024-02-15T00:12:45;66.00;;;34.15;;
21639;SDS011;10981;45.462;10.974;2024-02-15T00:15:15;65.47;;;35.20;;
21639;SDS011;10981;45.462;10.974;2024-02-15T00:17:43;63.78;;;33.85;;
21639;SDS011;10981;45.462;10.974;2024-02-15T00:20:13;66.45;;;31.83;;
21639;SDS011;10981;45.462;10.974;2024-02-15T00:22:42;65.82;;;33.83;;
21639;SDS011;10981;45.462;10.974;2024-02-15T00:25:10;59.33;;;30.55;;
21639;SDS011;10981;45.462;10.974;2024-02-15T00:27:41;57.40;;;31.20;;
21639;SDS011;10981;45.462;10.974;2024-02-15T00:30:09;57.70;;;31.10;;
21639;SDS011;10981;45.462;10.974;2024-02-15T00:32:38;67.35;;;32.95;;
21639;SDS011;10981;45.462;10.974;2024-02-15T00:35:07;57.25;;;30.70;;
21639;SDS011;10981;45.462;10.974;2024-02-15T00:37:37;54.72;;;29.52;;
21639;SDS011;10981;45.462;10.974;2024-02-15T00:40:07;54.45;;;29.63;;
21639;SDS011;10981;45.462;10.974;2024-02-15T00:42:36;55.30;;;29.00;;
21639;SDS011;10981;45.462;10.974;2024-02-15T00:45:05;59.22;;;28.17;;
21639;SDS011;10981;45.462;10.974;2024-02-15T00:47:36;63.75;;;29.30;;
21639;SDS011;10981;45.462;10.974;2024-02-15T00:52:37;60.70;;;29.70;;
21639;SDS011;10981;45.462;10.974;2024-02-15T00:55:06;59.72;;;32.30;;
21639;SDS011;10981;45.462;10.974;2024-02-15T00:57:34;57.40;;;28.35;;
21639;SDS011;10981;45.462;10.974;2024-02-15T01:00:03;65.03;;;30.27;;
21639;SDS011;10981;45.462;10.974;2024-02-15T01:02:33;58.30;;;29.08;;
21639;SDS011;10981;45.462;10.974;2024-02-15T01:05:02;59.03;;;31.58;;
21639;SDS011;10981;45.462;10.974;2024-02-15T01:07:31;59.03;;;30.80;;
21639;SDS011;10981;45.462;10.974;2024-02-15T01:10:00;58.70;;;31.13;;
21639;SDS011;10981;45.462;10.974;2024-02-15T01:12:30;60.42;;;30.73;;
21639;SDS011;10981;45.462;10.974;2024-02-15T01:15:00;60.17;;;30.25;;
21639;SDS011;10981;45.462;10.974;2024-02-15T01:17:29;56.00;;;30.52;;
21639;SDS011;10981;45.462;10.974;2024-02-15T01:19:58;63.25;;;30.92;;
21639;SDS011;10981;45.462;10.974;2024-02-15T01:22:26;65.68;;;33.20;;
21639;SDS011;10981;45.462;10.974;2024-02-15T01:24:54;59.30;;;33.00;;
21639;SDS011;10981;45.462;10.974;2024-02-15T01:27:24;63.85;;;32.13;;
21639;SDS011;10981;45.462;10.974;2024-02-15T01:29:54;60.15;;;31.65;;
21639;SDS011;10981;45.462;10.974;2024-02-15T01:32:23;62.63;;;32.05;;
21639;SDS011;10981;45.462;10.974;2024-02-15T01:34:52;59.35;;;32.65;;
21639;SDS011;10981;45.462;10.974;2024-02-15T01:37:22;63.63;;;32.53;;
21639;SDS011;10981;45.462;10.974;2024-02-15T01:39:50;65.30;;;31.98;;
21639;SDS011;10981;45.462;10.974;2024-02-15T01:42:19;61.78;;;32.40;;
21639;SDS011;10981;45.462;10.974;2024-02-15T01:44:47;66.75;;;35.22;;
21639;SDS011;10981;45.462;10.974;2024-02-15T01:47:17;65.20;;;34.95;;
21639;SDS011;10981;45.462;10.974;2024-02-15T01:49:50;65.55;;;35.33;;
21639;SDS011;10981;45.462;10.974;2024-02-15T01:52:20;69.30;;;35.53;;
21639;SDS011;10981;45.462;10.974;2024-02-15T01:54:50;65.30;;;36.33;;
21639;SDS011;10981;45.462;10.974;2024-02-15T01:57:20;68.22;;;34.60;;
21639;SDS011;10981;45.462;10.974;2024-02-15T01:59:51;61.45;;;33.63;;
21639;SDS011;10981;45.462;10.974;2024-02-15T02:02:21;68.85;;;37.65;;
21639;SDS011;10981;45.462;10.974;2024-02-15T02:04:52;76.00;;;41.10;;
21639;SDS011;10981;45.462;10.974;2024-02-15T02:07:20;71.03;;;39.10;;
21639;SDS011;10981;45.462;10.974;2024-02-15T02:09:49;65.60;;;36.35;;
21639;SDS011;10981;45.462;10.974;2024-02-15T02:12:17;70.05;;;36.63;;
21639;SDS011;10981;45.462;10.974;2024-02-15T02:14:45;68.55;;;37.83;;
21639;SDS011;10981;45.462;10.974;2024-02-15T02:17:13;66.13;;;36.65;;
21639;SDS011;10981;45.462;10.974;2024-02-15T02:19:42;67.93;;;37.08;;
21639;SDS011;10981;45.462;10.974;2024-02-15T02:22:11;77.53;;;38.47;;
21639;SDS011;10981;45.462;10.974;2024-02-15T02:27:31;66.65;;;36.45;;
21639;SDS011;10981;45.462;10.974;2024-02-15T02:30:00;73.13;;;38.70;;
21639;SDS011;10981;45.462;10.974;2024-02-15T02:32:34;69.30;;;36.22;;
21639;SDS011;10981;45.462;10.974;2024-02-15T02:35:03;70.13;;;36.33;;
21639;SDS011;10981;45.462;10.974;2024-02-15T02:37:34;65.95;;;35.33;;
21639;SDS011;10981;45.462;10.974;2024-02-15T02:40:06;64.38;;;35.67;;
21639;SDS011;10981;45.462;10.974;2024-02-15T02:45:18;70.65;;;38.63;;
21639;SDS011;10981;45.462;10.974;2024-02-15T02:47:49;63.38;;;35.05;;
21639;SDS011;10981;45.462;10.974;2024-02-15T02:50:21;60.63;;;32.78;;
21639;SDS011;10981;45.462;10.974;2024-02-15T02:52:51;63.70;;;33.60;;
21639;SDS011;10981;45.462;10.974;2024-02-15T02:55:20;65.80;;;34.10;;
21639;SDS011;10981;45.462;10.974;2024-02-15T02:57:49;62.92;;;33.30;;
21639;SDS011;10981;45.462;10.974;2024-02-15T03:00:18;64.82;;;35.70;;
21639;SDS011;10981;45.462;10.974;2024-02-15T03:02:47;68.32;;;34.38;;
21639;SDS011;10981;45.462;10.974;2024-02-15T03:05:15;67.32;;;36.22;;
21639;SDS011;10981;45.462;10.974;2024-02-15T03:07:45;60.90;;;33.33;;
21639;SDS011;10981;45.462;10.974;2024-02-15T03:10:13;64.97;;;34.40;;
21639;SDS011;10981;45.462;10.974;2024-02-15T03:12:42;60.10;;;32.63;;
21639;SDS011;10981;45.462;10.974;2024-02-15T03:17:45;59.22;;;32.10;;
21639;SDS011;10981;45.462;10.974;2024-02-15T03:20:16;63.15;;;34.55;;
21639;SDS011;10981;45.462;10.974;2024-02-15T03:22:53;57.80;;;32.58;;
21639;SDS011;10981;45.462;10.974;2024-02-15T03:25:23;63.80;;;35.22;;
21639;SDS011;10981;45.462;10.974;2024-02-15T03:27:53;62.85;;;33.20;;
21639;SDS011;10981;45.462;10.974;2024-02-15T03:30:24;65.25;;;33.78;;
21639;SDS011;10981;45.462;10.974;2024-02-15T03:32:53;65.22;;;36.88;;
21639;SDS011;10981;45.462;10.974;2024-02-15T03:35:23;66.18;;;34.05;;
21639;SDS011;10981;45.462;10.974;2024-02-15T03:37:53;65.32;;;35.85;;
21639;SDS011;10981;45.462;10.974;2024-02-15T03:40:22;58.75;;;34.38;;
21639;SDS011;10981;45.462;10.974;2024-02-15T03:42:53;64.75;;;34.88;;
21639;SDS011;10981;45.462;10.974;2024-02-15T03:45:22;59.60;;;32.97;;
21639;SDS011;10981;45.462;10.974;2024-02-15T03:47:53;66.35;;;35.72;;
21639;SDS011;10981;45.462;10.974;2024-02-15T03:50:23;68.53;;;34.85;;
21639;SDS011;10981;45.462;10.974;2024-02-15T03:52:51;66.97;;;36.90;;
21639;SDS011;10981;45.462;10.974;2024-02-15T03:55:19;70.18;;;36.80;;
21639;SDS011;10981;45.462;10.974;2024-02-15T03:57:49;63.60;;;35.33;;
21639;SDS011;10981;45.462;10.974;2024-02-15T04:00:17;69.88;;;36.13;;
21639;SDS011;10981;45.462;10.974;2024-02-15T04:02:49;71.05;;;36.58;;
21639;SDS011;10981;45.462;10.974;2024-02-15T04:05:17;63.40;;;36.55;;
21639;SDS011;10981;45.462;10.974;2024-02-15T04:07:46;67.05;;;35.65;;
21639;SDS011;10981;45.462;10.974;2024-02-15T04:10:15;66.13;;;33.67;;
21639;SDS011;10981;45.462;10.974;2024-02-15T04:12:54;59.70;;;34.22;;
21639;SDS011;10981;45.462;10.974;2024-02-15T04:15:25;71.55;;;40.95;;
21639;SDS011;10981;45.462;10.974;2024-02-15T04:17:53;78.93;;;42.38;;
21639;SDS011;10981;45.462;10.974;2024-02-15T04:20:23;79.50;;;43.35;;
21639;SDS011;10981;45.462;10.974;2024-02-15T04:22:52;77.43;;;41.75;;
21639;SDS011;10981;45.462;10.974;2024-02-15T04:25:21;74.28;;;40.10;;
21639;SDS011;10981;45.462;10.974;2024-02-15T04:27:50;70.35;;;36.40;;
21639;SDS011;10981;45.462;10.974;2024-02-15T04:30:18;74.22;;;39.88;;
21639;SDS011;10981;45.462;10.974;2024-02-15T04:32:47;65.35;;;37.85;;
21639;SDS011;10981;45.462;10.974;2024-02-15T04:35:16;70.72;;;38.83;;
21639;SDS011;10981;45.462;10.974;2024-02-15T04:37:45;60.38;;;35.85;;
21639;SDS011;10981;45.462;10.974;2024-02-15T04:40:14;71.55;;;37.97;;
21639;SDS011;10981;45.462;10.974;2024-02-15T04:42:45;66.45;;;37.08;;
21639;SDS011;10981;45.462;10.974;2024-02-15T04:45:14;68.85;;;36.38;;
21639;SDS011;10981;45.462;10.974;2024-02-15T04:47:56;64.55;;;36.33;;
21639;SDS011;10981;45.462;10.974;2024-02-15T04:50:29;69.65;;;37.90;;
21639;SDS011;10981;45.462;10.974;2024-02-15T04:52:57;71.50;;;37.53;;
21639;SDS011;10981;45.462;10.974;2024-02-15T04:55:25;68.72;;;38.03;;
21639;SDS011;10981;45.462;10.974;2024-02-15T04:57:54;75.63;;;39.08;;
21639;SDS011;10981;45.462;10.974;2024-02-15T05:00:22;70.20;;;38.05;;
21639;SDS011;10981;45.462;10.974;2024-02-15T05:02:53;68.60;;;37.47;;
21639;SDS011;10981;45.462;10.974;2024-02-15T05:05:21;77.43;;;40.67;;
21639;SDS011;10981;45.462;10.974;2024-02-15T05:07:51;71.35;;;37.97;;
21639;SDS011;10981;45.462;10.974;2024-02-15T05:10:19;67.78;;;37.53;;
21639;SDS011;10981;45.462;10.974;2024-02-15T05:12:47;75.53;;;39.55;;
21639;SDS011;10981;45.462;10.974;2024-02-15T05:15:16;73.65;;;35.90;;
21639;SDS011;10981;45.462;10.974;2024-02-15T05:17:47;70.30;;;38.78;;
21639;SDS011;10981;45.462;10.974;2024-02-15T05:20:16;70.65;;;36.15;;
21639;SDS011;10981;45.462;10.974;2024-02-15T05:22:45;65.78;;;36.17;;
21639;SDS011;10981;45.462;10.974;2024-02-15T05:25:17;65.75;;;35.40;;
21639;SDS011;10981;45.462;10.974;2024-02-15T05:27:53;71.63;;;38.00;;
21639;SDS011;10981;45.462;10.974;2024-02-15T05:30:24;82.90;;;45.20;;
21639;SDS011;10981;45.462;10.974;2024-02-15T05:32:54;115.50;;;50.97;;
21639;SDS011;10981;45.462;10.974;2024-02-15T05:35:24;106.65;;;50.72;;
21639;SDS011;10981;45.462;10.974;2024-02-15T05:37:54;95.07;;;48.30;;
21639;SDS011;10981;45.462;10.974;2024-02-15T05:40:23;96.88;;;48.20;;
21639;SDS011;10981;45.462;10.974;2024-02-15T05:42:54;84.38;;;44.55;;
21639;SDS011;10981;45.462;10.974;2024-02-15T05:47:52;85.05;;;43.97;;
21639;SDS011;10981;45.462;10.974;2024-02-15T05:50:21;75.53;;;41.95;;
21639;SDS011;10981;45.462;10.974;2024-02-15T05:52:50;69.22;;;39.00;;
21639;SDS011;10981;45.462;10.974;2024-02-15T05:55:21;76.65;;;42.00;;
21639;SDS011;10981;45.462;10.974;2024-02-15T05:57:49;75.45;;;40.17;;
21639;SDS011;10981;45.462;10.974;2024-02-15T06:00:18;73.00;;;40.10;;
21639;SDS011;10981;45.462;10.974;2024-02-15T06:02:49;73.20;;;40.50;;
21639;SDS011;10981;45.462;10.974;2024-02-15T06:05:19;77.80;;;40.08;;
21639;SDS011;10981;45.462;10.974;2024-02-15T06:07:47;73.38;;;41.95;;
21639;SDS011;10981;45.462;10.974;2024-02-15T06:10:16;80.50;;;42.53;;
21639;SDS011;10981;45.462;10.974;2024-02-15T06:12:45;83.68;;;44.30;;
21639;SDS011;10981;45.462;10.974;2024-02-15T06:15:13;82.28;;;43.05;;
21639;SDS011;10981;45.462;10.974;2024-02-15T06:17:45;83.85;;;44.53;;
21639;SDS011;10981;45.462;10.974;2024-02-15T06:20:15;75.82;;;43.22;;
21639;SDS011;10981;45.462;10.974;2024-02-15T06:25:26;84.85;;;44.40;;
21639;SDS011;10981;45.462;10.974;2024-02-15T06:28:04;80.25;;;43.83;;
21639;SDS011;10981;45.462;10.974;2024-02-15T06:30:42;89.28;;;44.47;;
21639;SDS011;10981;45.462;10.974;2024-02-15T06:33:28;83.85;;;44.45;;
21639;SDS011;10981;45.462;10.974;2024-02-15T06:36:15;81.97;;;46.28;;
21639;SDS011;10981;45.462;10.974;2024-02-15T06:39:07;86.78;;;47.15;;
21639;SDS011;10981;45.462;10.974;2024-02-15T06:41:54;83.28;;;44.38;;
21639;SDS011;10981;45.462;10.974;2024-02-15T06:44:25;80.35;;;43.13;;
21639;SDS011;10981;45.462;10.974;2024-02-15T06:46:53;81.65;;;42.85;;
21639;SDS011;10981;45.462;10.974;2024-02-15T06:49:23;82.88;;;46.78;;
21639;SDS011;10981;45.462;10.974;2024-02-15T06:51:54;85.93;;;46.60;;
21639;SDS011;10981;45.462;10.974;2024-02-15T06:54:23;90.13;;;47.55;;
21639;SDS011;10981;45.462;10.974;2024-02-15T06:56:52;87.55;;;46.90;;
21639;SDS011;10981;45.462;10.974;2024-02-15T06:59:21;88.80;;;46.65;;
21639;SDS011;10981;45.462;10.974;2024-02-15T07:01:50;95.85;;;44.63;;
21639;SDS011;10981;45.462;10.974;2024-02-15T07:04:21;86.30;;;42.42;;
21639;SDS011;10981;45.462;10.974;2024-02-15T07:06:53;80.65;;;43.72;;
21639;SDS011;10981;45.462;10.974;2024-02-15T07:09:22;80.85;;;42.70;;
21639;SDS011;10981;45.462;10.974;2024-02-15T07:11:51;69.32;;;41.03;;
21639;SDS011;10981;45.462;10.974;2024-02-15T07:14:20;78.63;;;41.95;;
21639;SDS011;10981;45.462;10.974;2024-02-15T07:16:49;96.15;;;45.83;;
21639;SDS011;10981;45.462;10.974;2024-02-15T07:19:17;98.03;;;48.25;;
21639;SDS011;10981;45.462;10.974;2024-02-15T07:21:46;99.60;;;49.25;;
21639;SDS011;10981;45.462;10.974;2024-02-15T07:24:14;101.13;;;50.03;;
21639;SDS011;10981;45.462;10.974;2024-02-15T07:26:42;96.07;;;47.78;;
21639;SDS011;10981;45.462;10.974;2024-02-15T07:29:11;99.20;;;51.10;;
21639;SDS011;10981;45.462;10.974;2024-02-15T07:31:42;94.70;;;50.35;;
21639;SDS011;10981;45.462;10.974;2024-02-15T07:34:10;104.35;;;49.75;;
21639;SDS011;10981;45.462;10.974;2024-02-15T07:36:39;94.40;;;49.67;;
21639;SDS011;10981;45.462;10.974;2024-02-15T07:39:09;98.22;;;51.97;;
21639;SDS011;10981;45.462;10.974;2024-02-15T07:41:41;101.65;;;51.83;;
21639;SDS011;10981;45.462;10.974;2024-02-15T07:44:09;95.53;;;49.05;;
21639;SDS011;10981;45.462;10.974;2024-02-15T07:46:38;98.43;;;49.05;;
21639;SDS011;10981;45.462;10.974;2024-02-15T07:49:07;96.10;;;48.10;;
21639;SDS011;10981;45.462;10.974;2024-02-15T07:51:35;92.20;;;50.75;;
21639;SDS011;10981;45.462;10.974;2024-02-15T07:54:04;99.38;;;50.92;;
21639;SDS011;10981;45.462;10.974;2024-02-15T07:56:33;96.90;;;53.55;;
21639;SDS011;10981;45.462;10.974;2024-02-15T07:59:02;88.55;;;51.55;;
21639;SDS011;10981;45.462;10.974;2024-02-15T08:01:30;88.10;;;43.30;;
21639;SDS011;10981;45.462;10.974;2024-02-15T08:03:59;74.32;;;39.83;;
21639;SDS011;10981;45.462;10.974;2024-02-15T08:06:27;67.85;;;37.83;;
21639;SDS011;10981;45.462;10.974;2024-02-15T08:08:56;79.40;;;39.22;;
21639;SDS011;10981;45.462;10.974;2024-02-15T08:11:24;73.30;;;39.00;;
21639;SDS011;10981;45.462;10.974;2024-02-15T08:13:54;68.20;;;36.67;;
21639;SDS011;10981;45.462;10.974;2024-02-15T08:16:26;63.58;;;35.90;;
21639;SDS011;10981;45.462;10.974;2024-02-15T08:18:54;65.55;;;36.33;;
21639;SDS011;10981;45.462;10.974;2024-02-15T08:21:27;74.45;;;35.85;;
21639;SDS011;10981;45.462;10.974;2024-02-15T08:23:57;63.00;;;34.28;;
21639;SDS011;10981;45.462;10.974;2024-02-15T08:26:26;70.68;;;31.55;;
21639;SDS011;10981;45.462;10.974;2024-02-15T08:28:57;57.60;;;31.48;;
21639;SDS011;10981;45.462;10.974;2024-02-15T08:31:25;62.08;;;34.35;;
21639;SDS011;10981;45.462;10.974;2024-02-15T08:33:53;66.10;;;33.38;;
21639;SDS011;10981;45.462;10.974;2024-02-15T08:36:22;64.20;;;33.95;;
21639;SDS011;10981;45.462;10.974;2024-02-15T08:38:50;58.45;;;33.90;;
21639;SDS011;10981;45.462;10.974;2024-02-15T08:41:18;64.75;;;34.80;;
21639;SDS011;10981;45.462;10.974;2024-02-15T08:43:48;68.68;;;34.47;;
21639;SDS011;10981;45.462;10.974;2024-02-15T08:46:16;66.78;;;35.33;;
21639;SDS011;10981;45.462;10.974;2024-02-15T08:48:45;65.32;;;36.70;;
21639;SDS011;10981;45.462;10.974;2024-02-15T08:51:14;61.88;;;35.33;;
21639;SDS011;10981;45.462;10.974;2024-02-15T08:53:43;60.85;;;36.03;;
21639;SDS011;10981;45.462;10.974;2024-02-15T08:56:12;66.47;;;34.67;;
21639;SDS011;10981;45.462;10.974;2024-02-15T08:58:40;63.78;;;35.25;;
21639;SDS011;10981;45.462;10.974;2024-02-15T09:01:09;60.38;;;34.20;;
21639;SDS011;10981;45.462;10.974;2024-02-15T09:03:40;67.70;;;35.63;;
21639;SDS011;10981;45.462;10.974;2024-02-15T09:06:12;60.50;;;33.35;;
21639;SDS011;10981;45.462;10.974;2024-02-15T09:08:41;64.70;;;34.47;;
21639;SDS011;10981;45.462;10.974;2024-02-15T09:11:09;65.28;;;34.70;;
21639;SDS011;10981;45.462;10.974;2024-02-15T09:13:39;66.75;;;35.45;;
21639;SDS011;10981;45.462;10.974;2024-02-15T09:16:08;61.45;;;36.15;;
21639;SDS011;10981;45.462;10.974;2024-02-15T09:18:39;67.03;;;35.78;;
21639;SDS011;10981;45.462;10.974;2024-02-15T09:21:13;66.63;;;36.00;;
21639;SDS011;10981;45.462;10.974;2024-02-15T09:23:41;69.55;;;36.75;;
21639;SDS011;10981;45.462;10.974;2024-02-15T09:26:12;72.68;;;37.25;;
21639;SDS011;10981;45.462;10.974;2024-02-15T09:28:40;69.22;;;37.30;;
21639;SDS011;10981;45.462;10.974;2024-02-15T09:31:09;72.40;;;38.38;;
21639;SDS011;10981;45.462;10.974;2024-02-15T09:33:41;65.95;;;35.70;;
21639;SDS011;10981;45.462;10.974;2024-02-15T09:36:09;68.28;;;39.67;;
21639;SDS011;10981;45.462;10.974;2024-02-15T09:38:39;72.60;;;42.05;;
21639;SDS011;10981;45.462;10.974;2024-02-15T09:41:08;81.18;;;41.50;;
21639;SDS011;10981;45.462;10.974;2024-02-15T09:43:37;85.28;;;43.00;;
21639;SDS011;10981;45.462;10.974;2024-02-15T09:46:06;77.03;;;41.47;;
21639;SDS011;10981;45.462;10.974;2024-02-15T09:48:34;81.10;;;43.03;;
21639;SDS011;10981;45.462;10.974;2024-02-15T09:51:03;79.47;;;44.08;;
21639;SDS011;10981;45.462;10.974;2024-02-15T09:53:34;76.38;;;42.83;;
21639;SDS011;10981;45.462;10.974;2024-02-15T09:56:03;75.43;;;42.88;;
21639;SDS011;10981;45.462;10.974;2024-02-15T09:58:39;75.45;;;42.75;;
21639;SDS011;10981;45.462;10.974;2024-02-15T10:01:08;76.68;;;42.28;;
21639;SDS011;10981;45.462;10.974;2024-02-15T10:03:40;77.88;;;43.28;;
21639;SDS011;10981;45.462;10.974;2024-02-15T10:06:28;84.22;;;44.85;;
21639;SDS011;10981;45.462;10.974;2024-02-15T10:09:22;82.60;;;43.42;;
21639;SDS011;10981;45.462;10.974;2024-02-15T10:11:55;79.82;;;43.83;;
21639;SDS011;10981;45.462;10.974;2024-02-15T10:14:24;79.85;;;44.05;;
21639;SDS011;10981;45.462;10.974;2024-02-15T10:16:54;75.20;;;44.80;;
21639;SDS011;10981;45.462;10.974;2024-02-15T10:19:23;77.15;;;44.00;;
21639;SDS011;10981;45.462;10.974;2024-02-15T10:21:52;79.03;;;43.22;;
21639;SDS011;10981;45.462;10.974;2024-02-15T10:24:23;80.53;;;45.28;;
21639;SDS011;10981;45.462;10.974;2024-02-15T10:26:51;89.43;;;47.47;;
21639;SDS011;10981;45.462;10.974;2024-02-15T10:45:24;77.85;;;46.53;;
21639;SDS011;10981;45.462;10.974;2024-02-15T10:47:53;76.47;;;45.33;;
21639;SDS011;10981;45.462;10.974;2024-02-15T10:50:21;79.50;;;45.42;;
21639;SDS011;10981;45.462;10.974;2024-02-15T10:52:57;74.78;;;43.28;;
21639;SDS011;10981;45.462;10.974;2024-02-15T10:55:33;83.32;;;45.35;;
21639;SDS011;10981;45.462;10.974;2024-02-15T11:17:09;77.72;;;45.47;;
21639;SDS011;10981;45.462;10.974;2024-02-15T11:19:40;76.35;;;44.45;;
21639;SDS011;10981;45.462;10.974;2024-02-15T11:22:14;75.30;;;42.47;;
21639;SDS011;10981;45.462;10.974;2024-02-15T11:24:47;73.45;;;42.60;;
21639;SDS011;10981;45.462;10.974;2024-02-15T11:27:25;74.22;;;43.13;;
21639;SDS011;10981;45.462;10.974;2024-02-15T11:29:59;77.57;;;43.40;;
21639;SDS011;10981;45.462;10.974;2024-02-15T11:32:45;86.90;;;46.85;;
21639;SDS011;10981;45.462;10.974;2024-02-15T11:35:19;72.82;;;42.55;;
21639;SDS011;10981;45.462;10.974;2024-02-15T11:37:52;75.63;;;43.08;;
21639;SDS011;10981;45.462;10.974;2024-02-15T11:40:23;76.82;;;43.05;;
21639;SDS011;10981;45.462;10.974;2024-02-15T11:42:53;77.13;;;43.28;;
21639;SDS011;10981;45.462;10.974;2024-02-15T11:45:21;76.30;;;43.03;;
21639;SDS011;10981;45.462;10.974;2024-02-15T11:47:51;73.30;;;40.72;;
21639;SDS011;10981;45.462;10.974;2024-02-15T11:50:23;79.60;;;45.20;;
21639;SDS011;10981;45.462;10.974;2024-02-15T11:52:52;74.50;;;42.20;;
21639;SDS011;10981;45.462;10.974;2024-02-15T11:55:33;73.95;;;42.65;;
21639;SDS011;10981;45.462;10.974;2024-02-15T11:58:02;73.68;;;42.08;;
21639;SDS011;10981;45.462;10.974;2024-02-15T12:00:38;78.22;;;43.55;;
21639;SDS011;10981;45.462;10.974;2024-02-15T12:03:26;76.35;;;43.75;;
21639;SDS011;10981;45.462;10.974;2024-02-15T12:06:30;80.93;;;43.22;;
21639;SDS011;10981;45.462;10.974;2024-02-15T12:09:18;69.90;;;42.35;;
21639;SDS011;10981;45.462;10.974;2024-02-15T12:12:06;73.85;;;42.03;;
21639;SDS011;10981;45.462;10.974;2024-02-15T12:15:02;68.25;;;41.08;;
21639;SDS011;10981;45.462;10.974;2024-02-15T12:17:49;73.78;;;42.80;;
21639;SDS011;10981;45.462;10.974;2024-02-15T12:20:36;79.65;;;44.10;;
21639;SDS011;10981;45.462;10.974;2024-02-15T12:23:07;72.30;;;40.50;;
21639;SDS011;10981;45.462;10.974;2024-02-15T12:25:36;70.63;;;43.20;;
21639;SDS011;10981;45.462;10.974;2024-02-15T12:28:05;70.30;;;42.05;;
21639;SDS011;10981;45.462;10.974;2024-02-15T12:30:34;68.10;;;41.13;;
21639;SDS011;10981;45.462;10.974;2024-02-15T12:33:11;67.95;;;40.85;;
21639;SDS011;10981;45.462;10.974;2024-02-15T12:35:47;67.93;;;41.35;;
21639;SDS011;10981;45.462;10.974;2024-02-15T12:38:17;68.85;;;41.45;;
21639;SDS011;10981;45.462;10.974;2024-02-15T12:40:48;65.38;;;41.03;;
21639;SDS011;10981;45.462;10.974;2024-02-15T12:43:17;71.38;;;41.45;;
21639;SDS011;10981;45.462;10.974;2024-02-15T12:45:45;68.30;;;41.13;;
21639;SDS011;10981;45.462;10.974;2024-02-15T12:48:13;65.00;;;38.65;;
21639;SDS011;10981;45.462;10.974;2024-02-15T12:50:46;70.30;;;41.53;;
21639;SDS011;10981;45.462;10.974;2024-02-15T12:53:21;69.32;;;40.53;;
21639;SDS011;10981;45.462;10.974;2024-02-15T12:55:54;68.03;;;40.60;;
21639;SDS011;10981;45.462;10.974;2024-02-15T12:58:23;63.58;;;40.60;;
21639;SDS011;10981;45.462;10.974;2024-02-15T13:00:56;66.30;;;40.60;;
21639;SDS011;10981;45.462;10.974;2024-02-15T13:03:28;74.90;;;43.92;;
21639;SDS011;10981;45.462;10.974;2024-02-15T13:05:57;72.90;;;42.53;;
21639;SDS011;10981;45.462;10.974;2024-02-15T13:08:28;75.88;;;44.90;;
21639;SDS011;10981;45.462;10.974;2024-02-15T13:11:00;72.20;;;44.67;;
21639;SDS011;10981;45.462;10.974;2024-02-15T13:13:30;77.88;;;43.53;;
21639;SDS011;10981;45.462;10.974;2024-02-15T13:15:59;65.07;;;41.60;;
21639;SDS011;10981;45.462;10.974;2024-02-15T13:18:28;73.13;;;44.83;;
21639;SDS011;10981;45.462;10.974;2024-02-15T13:20:57;70.97;;;43.13;;
21639;SDS011;10981;45.462;10.974;2024-02-15T13:23:28;74.97;;;45.28;;
21639;SDS011;10981;45.462;10.974;2024-02-15T13:25:58;76.95;;;44.15;;
21639;SDS011;10981;45.462;10.974;2024-02-15T13:28:31;72.32;;;44.63;;
21639;SDS011;10981;45.462;10.974;2024-02-15T13:30:59;73.28;;;45.08;;
21639;SDS011;10981;45.462;10.974;2024-02-15T13:33:27;81.35;;;43.33;;
21639;SDS011;10981;45.462;10.974;2024-02-15T13:35:59;75.45;;;46.47;;
21639;SDS011;10981;45.462;10.974;2024-02-15T13:38:27;81.57;;;47.85;;
21639;SDS011;10981;45.462;10.974;2024-02-15T13:40:57;76.57;;;45.03;;
21639;SDS011;10981;45.462;10.974;2024-02-15T13:43:30;81.55;;;47.85;;
21639;SDS011;10981;45.462;10.974;2024-02-15T13:45:59;77.93;;;45.78;;
21639;SDS011;10981;45.462;10.974;2024-02-15T13:48:29;82.97;;;47.15;;
21639;SDS011;10981;45.462;10.974;2024-02-15T13:50:57;81.28;;;48.45;;
21639;SDS011;10981;45.462;10.974;2024-02-15T13:53:26;79.25;;;46.13;;
21639;SDS011;10981;45.462;10.974;2024-02-15T13:55:55;81.88;;;49.28;;
21639;SDS011;10981;45.462;10.974;2024-02-15T13:58:23;87.05;;;48.53;;
21639;SDS011;10981;45.462;10.974;2024-02-15T14:00:52;76.22;;;46.65;;
21639;SDS011;10981;45.462;10.974;2024-02-15T14:03:20;75.82;;;45.67;;
21639;SDS011;10981;45.462;10.974;2024-02-15T14:05:49;87.15;;;47.63;;
21639;SDS011;10981;45.462;10.974;2024-02-15T14:08:18;82.57;;;48.78;;
21639;SDS011;10981;45.462;10.974;2024-02-15T14:10:48;82.18;;;47.63;;
21639;SDS011;10981;45.462;10.974;2024-02-15T14:13:16;79.45;;;45.55;;
21639;SDS011;10981;45.462;10.974;2024-02-15T14:15:45;84.65;;;47.50;;
21639;SDS011;10981;45.462;10.974;2024-02-15T14:18:13;79.43;;;46.67;;
21639;SDS011;10981;45.462;10.974;2024-02-15T14:20:46;82.90;;;48.53;;
21639;SDS011;10981;45.462;10.974;2024-02-15T14:23:16;79.80;;;47.50;;
21639;SDS011;10981;45.462;10.974;2024-02-15T14:25:44;83.93;;;48.25;;
21639;SDS011;10981;45.462;10.974;2024-02-15T14:28:13;88.28;;;50.15;;
21639;SDS011;10981;45.462;10.974;2024-02-15T14:30:42;84.10;;;48.70;;
21639;SDS011;10981;45.462;10.974;2024-02-15T14:33:29;82.32;;;48.50;;
21639;SDS011;10981;45.462;10.974;2024-02-15T14:36:02;81.60;;;47.80;;
21639;SDS011;10981;45.462;10.974;2024-02-15T14:38:31;90.55;;;50.15;;
21639;SDS011;10981;45.462;10.974;2024-02-15T14:41:02;84.15;;;49.05;;
21639;SDS011;10981;45.462;10.974;2024-02-15T14:43:34;79.38;;;48.67;;
21639;SDS011;10981;45.462;10.974;2024-02-15T14:46:02;82.80;;;49.33;;
21639;SDS011;10981;45.462;10.974;2024-02-15T14:48:35;90.43;;;49.05;;
21639;SDS011;10981;45.462;10.974;2024-02-15T14:51:07;92.65;;;50.63;;
21639;SDS011;10981;45.462;10.974;2024-02-15T14:53:36;85.25;;;50.70;;
21639;SDS011;10981;45.462;10.974;2024-02-15T14:56:05;86.13;;;51.78;;
21639;SDS011;10981;45.462;10.974;2024-02-15T14:58:33;80.63;;;48.17;;
21639;SDS011;10981;45.462;10.974;2024-02-15T15:01:02;83.57;;;51.42;;
21639;SDS011;10981;45.462;10.974;2024-02-15T15:03:36;79.72;;;49.30;;
21639;SDS011;10981;45.462;10.974;2024-02-15T15:06:06;85.85;;;49.60;;
21639;SDS011;10981;45.462;10.974;2024-02-15T15:08:54;85.32;;;49.03;;
21639;SDS011;10981;45.462;10.974;2024-02-15T15:11:43;89.10;;;50.00;;
21639;SDS011;10981;45.462;10.974;2024-02-15T15:14:30;86.80;;;48.45;;
21639;SDS011;10981;45.462;10.974;2024-02-15T15:16:58;82.82;;;47.90;;
21639;SDS011;10981;45.462;10.974;2024-02-15T15:19:30;87.28;;;49.97;;